^^
Datos históricos de la estación: Murcia-Puente Tocinos
Diario Informe para Diciembre 18, 2019 Unidades:  Ambas    Ingés   Métrico
Diario Semanal Mensual Anual
  Máxima: Mínima: Promedio:
Temperatura: 63.1 °F /  17.3 °C 49.6 °F /  9.8 °C 55.8 °F /  13.2 °C
Punto de rocio: 44.8 °F /  7.1 °C 33.4 °F /  0.8 °C 40.5 °F /  4.7 °C
Humedad: 79% 33.6% 58%
Velocidad viento: 12.3mph /  19.8km/h - 6mph /  9.6km/h
Racha viento: 26.5mph /  42.6km/h - -
Viento- - SO
Presión: 30.1 in /  1019.0 hPa 29.9 in /  1012.4 hPa -
Precipitación: 0 in /  0.0 mm    
 
 
Tabla de datos para Diciembre 18, 2019
Hora Temperatura Punto de rocio Presión Viento Velocidad viento Racha viento Humedad Intensidad lluvia(por hora) Nubes
00:04 58.6 °F /  14.8 °C 44.4 °F /  6.9 °C 29.9in /  1012.6hPa OSO 6.4mph /  10.3km/h 15mph /  24.1km/h 59% 0in /  0.0mm
00:09 58.8 °F /  14.9 °C 44.4 °F /  6.9 °C 29.9in /  1012.6hPa OSO 6.4mph /  10.3km/h 15mph /  24.1km/h 58.7% 0in /  0.0mm
00:14 58.8 °F /  14.9 °C 44.1 °F /  6.7 °C 29.9in /  1012.6hPa OSO 6.4mph /  10.3km/h 14mph /  22.5km/h 58% 0in /  0.0mm
00:19 58.6 °F /  14.8 °C 44.2 °F /  6.8 °C 29.9in /  1012.6hPa SO 6.4mph /  10.3km/h 11.5mph /  18.5km/h 58.5% 0in /  0.0mm
00:24 58.6 °F /  14.8 °C 44.2 °F /  6.8 °C 29.9in /  1012.6hPa SO 6.3mph /  10.1km/h 12.5mph /  20.1km/h 59% 0in /  0.0mm
00:29 58.3 °F /  14.6 °C 44.1 °F /  6.7 °C 29.9in /  1012.4hPa OSO 6.2mph /  10km/h 13.8mph /  22.2km/h 59% 0in /  0.0mm
00:34 58.1 °F /  14.5 °C 43.9 °F /  6.6 °C 29.9in /  1012.4hPa SO 6.8mph /  11km/h 14mph /  22.5km/h 59% 0in /  0.0mm
00:39 57.9 °F /  14.4 °C 44.1 °F /  6.7 °C 29.9in /  1012.4hPa OSO 7.4mph /  11.9km/h 13mph /  20.9km/h 59.8% 0in /  0.0mm
00:44 57.9 °F /  14.4 °C 44.1 °F /  6.7 °C 29.9in /  1012.4hPa OSO 6.6mph /  10.7km/h 12mph /  19.3km/h 60% 0in /  0.0mm
00:49 57.7 °F /  14.3 °C 43.9 °F /  6.6 °C 29.9in /  1012.4hPa OSO 5.9mph /  9.5km/h 11.5mph /  18.5km/h 60% 0in /  0.0mm
00:54 57.7 °F /  14.3 °C 43.9 °F /  6.6 °C 29.9in /  1012.5hPa SO 5.9mph /  9.5km/h 12.7mph /  20.4km/h 60% 0in /  0.0mm
00:59 57.6 °F /  14.2 °C 43.9 °F /  6.6 °C 29.9in /  1012.5hPa SSO 5.9mph /  9.5km/h 13mph /  20.9km/h 60% 0in /  0.0mm
01:04 57.6 °F /  14.2 °C 43.9 °F /  6.6 °C 29.9in /  1012.5hPa OSO 5mph /  8.1km/h 9mph /  14.5km/h 60% 0in /  0.0mm
01:09 57.6 °F /  14.2 °C 43.7 °F /  6.5 °C 29.9in /  1012.7hPa Sur 4.3mph /  6.9km/h 6mph /  9.7km/h 60% 0in /  0.0mm
01:14 57.4 °F /  14.1 °C 43.9 °F /  6.6 °C 29.9in /  1012.7hPa SE 3.7mph /  6km/h 5.4mph /  8.7km/h 60.8% 0in /  0.0mm
01:19 57 °F /  13.9 °C 43.7 °F /  6.5 °C 29.9in /  1012.7hPa ENE 3.1mph /  5km/h 6mph /  9.7km/h 61% 0in /  0.0mm
01:24 56.8 °F /  13.8 °C 43.9 °F /  6.6 °C 29.9in /  1012.9hPa ESE 2.7mph /  4.4km/h 6mph /  9.7km/h 61.9% 0in /  0.0mm
01:29 56.5 °F /  13.6 °C 43.9 °F /  6.6 °C 29.9in /  1012.9hPa ESE 2.4mph /  3.9km/h 6mph /  9.7km/h 62.7% 0in /  0.0mm
01:34 56.1 °F /  13.4 °C 43.9 °F /  6.6 °C 29.9in /  1012.9hPa ESE 2.2mph /  3.5km/h 4mph /  6.4km/h 63% 0in /  0.0mm
01:39 56.1 °F /  13.4 °C 43.7 °F /  6.5 °C 29.9in /  1013.1hPa SSE 2mph /  3.2km/h 5.2mph /  8.4km/h 63% 0in /  0.0mm
01:44 56.1 °F /  13.4 °C 43.7 °F /  6.5 °C 29.9in /  1013.1hPa SO 2.5mph /  4km/h 8.5mph /  13.7km/h 63% 0in /  0.0mm
01:49 56.5 °F /  13.6 °C 43.5 °F /  6.4 °C 29.9in /  1013.1hPa SO 2.9mph /  4.7km/h 9.2mph /  14.8km/h 62% 0in /  0.0mm
01:54 56.5 °F /  13.6 °C 43.5 °F /  6.4 °C 29.9in /  1013.2hPa OSO 3.8mph /  6.1km/h 9mph /  14.5km/h 62% 0in /  0.0mm
01:59 56.5 °F /  13.6 °C 43.5 °F /  6.4 °C 29.9in /  1013.2hPa OSO 4.7mph /  7.6km/h 8mph /  12.9km/h 62% 0in /  0.0mm
02:04 56.1 °F /  13.4 °C 43.3 °F /  6.3 °C 29.9in /  1013.2hPa OSO 4.3mph /  7km/h 6.9mph /  11.1km/h 62% 0in /  0.0mm
02:09 56.1 °F /  13.4 °C 43.3 °F /  6.3 °C 29.9in /  1013.5hPa OSO 4mph /  6.5km/h 7mph /  11.3km/h 62.2% 0in /  0.0mm
02:14 55.9 °F /  13.3 °C 43.5 °F /  6.4 °C 29.9in /  1013.5hPa OSO 3.8mph /  6.1km/h 9.7mph /  15.6km/h 63% 0in /  0.0mm
02:19 55.9 °F /  13.3 °C 43.5 °F /  6.4 °C 29.9in /  1013.5hPa OSO 3.6mph /  5.8km/h 10mph /  16.1km/h 63% 0in /  0.0mm
02:24 55.9 °F /  13.3 °C 43.5 °F /  6.4 °C 29.9in /  1013.6hPa Oeste 3.9mph /  6.3km/h 11.5mph /  18.5km/h 62.8% 0in /  0.0mm
02:29 55.8 °F /  13.2 °C 43.3 °F /  6.3 °C 29.9in /  1013.6hPa Oeste 4.3mph /  6.9km/h 12mph /  19.3km/h 63% 0in /  0.0mm
02:34 55.6 °F /  13.1 °C 43.2 °F /  6.2 °C 29.9in /  1013.6hPa Oeste 4.8mph /  7.7km/h 8.5mph /  13.7km/h 63% 0in /  0.0mm
02:39 55.6 °F /  13.1 °C 43.2 °F /  6.2 °C 29.9in /  1013.7hPa OSO 5.2mph /  8.4km/h 10.4mph /  16.7km/h 63% 0in /  0.0mm
02:44 55.2 °F /  12.9 °C 42.8 °F /  6 °C 29.9in /  1013.7hPa OSO 4.9mph /  7.9km/h 10.4mph /  16.7km/h 63% 0in /  0.0mm
02:49 55.2 °F /  12.9 °C 42.8 °F /  6 °C 29.9in /  1013.7hPa Oeste 4.7mph /  7.6km/h 10.4mph /  16.7km/h 63% 0in /  0.0mm
02:54 55.2 °F /  12.9 °C 42.8 °F /  6 °C 29.9in /  1013.8hPa Oeste 5.1mph /  8.2km/h 10.4mph /  16.7km/h 63% 0in /  0.0mm
02:59 55 °F /  12.8 °C 42.8 °F /  6 °C 29.9in /  1013.8hPa ONO 5.4mph /  8.7km/h 11.5mph /  18.5km/h 63% 0in /  0.0mm
03:04 55.2 °F /  12.9 °C 42.8 °F /  6 °C 29.9in /  1013.8hPa Oeste 5.7mph /  9.1km/h 12mph /  19.3km/h 63% 0in /  0.0mm
03:09 55 °F /  12.8 °C 42.8 °F /  6 °C 29.9in /  1014.1hPa Oeste 5.9mph /  9.5km/h 10mph /  16.1km/h 63% 0in /  0.0mm
03:14 55 °F /  12.8 °C 42.6 °F /  5.9 °C 29.9in /  1014.1hPa Oeste 5.3mph /  8.5km/h 8mph /  12.9km/h 63% 0in /  0.0mm
03:19 55 °F /  12.8 °C 42.6 °F /  5.9 °C 29.9in /  1014.1hPa OSO 4.7mph /  7.6km/h 6.2mph /  10km/h 63% 0in /  0.0mm
03:24 55 °F /  12.8 °C 42.6 °F /  5.9 °C 30in /  1014.2hPa Oeste 3.9mph /  6.3km/h 6mph /  9.7km/h 63% 0in /  0.0mm
03:29 54.9 °F /  12.7 °C 42.4 °F /  5.8 °C 30in /  1014.2hPa OSO 3.1mph /  5km/h 6.9mph /  11.1km/h 63% 0in /  0.0mm
03:34 54.9 °F /  12.7 °C 42.4 °F /  5.8 °C 30in /  1014.2hPa SO 3.1mph /  5km/h 7mph /  11.3km/h 63% 0in /  0.0mm
03:39 54.9 °F /  12.7 °C 42.4 °F /  5.8 °C 30in /  1014.2hPa OSO 3.1mph /  5km/h 8.1mph /  13km/h 63% 0in /  0.0mm
03:44 54.9 °F /  12.7 °C 42.4 °F /  5.8 °C 30in /  1014.2hPa SO 3.7mph /  6km/h 9.2mph /  14.8km/h 63% 0in /  0.0mm
03:49 54.9 °F /  12.7 °C 42.4 °F /  5.8 °C 30in /  1014.2hPa SO 4.3mph /  6.9km/h 9mph /  14.5km/h 63.2% 0in /  0.0mm
03:54 54.5 °F /  12.5 °C 42.6 °F /  5.9 °C 30in /  1014.4hPa SO 4.3mph /  6.9km/h 8.1mph /  13km/h 64% 0in /  0.0mm
03:59 54.3 °F /  12.4 °C 42.3 °F /  5.7 °C 30in /  1014.4hPa SO 4.3mph /  6.9km/h 8.5mph /  13.7km/h 64% 0in /  0.0mm
04:04 54.1 °F /  12.3 °C 42.3 °F /  5.7 °C 30in /  1014.4hPa SO 4.9mph /  7.9km/h 11.8mph /  19km/h 64% 0in /  0.0mm
04:09 54.1 °F /  12.3 °C 42.3 °F /  5.7 °C 30in /  1014.4hPa SO 5.4mph /  8.7km/h 12mph /  19.3km/h 64% 0in /  0.0mm
04:14 54.1 °F /  12.3 °C 42.3 °F /  5.7 °C 30in /  1014.4hPa SO 5.7mph /  9.1km/h 10mph /  16.1km/h 64% 0in /  0.0mm
04:19 54 °F /  12.2 °C 42.3 °F /  5.7 °C 30in /  1014.4hPa SO 5.9mph /  9.5km/h 9.7mph /  15.6km/h 64.4% 0in /  0.0mm
04:24 54 °F /  12.2 °C 42.1 °F /  5.6 °C 30in /  1014.5hPa SO 5.7mph /  9.1km/h 10mph /  16.1km/h 64% 0in /  0.0mm
04:29 53.8 °F /  12.1 °C 42.3 °F /  5.7 °C 30in /  1014.5hPa SO 5.4mph /  8.7km/h 8.5mph /  13.7km/h 64.8% 0in /  0.0mm
04:34 53.8 °F /  12.1 °C 42.3 °F /  5.7 °C 30in /  1014.5hPa SSO 5.3mph /  8.5km/h 9mph /  14.5km/h 65% 0in /  0.0mm
04:39 53.6 °F /  12 °C 42.1 °F /  5.6 °C 30in /  1014.7hPa SO 5.2mph /  8.4km/h 10.4mph /  16.7km/h 65% 0in /  0.0mm
04:44 53.6 °F /  12 °C 42.1 °F /  5.6 °C 30in /  1014.7hPa SO 5.2mph /  8.4km/h 10mph /  16.1km/h 65% 0in /  0.0mm
04:49 53.4 °F /  11.9 °C 41.9 °F /  5.5 °C 30in /  1014.7hPa SO 5.2mph /  8.4km/h 9mph /  14.5km/h 65% 0in /  0.0mm
04:54 53.4 °F /  11.9 °C 41.7 °F /  5.4 °C 30in /  1014.8hPa SO 5.2mph /  8.4km/h 8.1mph /  13km/h 64.5% 0in /  0.0mm
04:59 53.4 °F /  11.9 °C 41.5 °F /  5.3 °C 30in /  1014.8hPa SO 5.2mph /  8.4km/h 11.5mph /  18.5km/h 64% 0in /  0.0mm
05:04 53.4 °F /  11.9 °C 41.7 °F /  5.4 °C 30in /  1014.8hPa SO 5.2mph /  8.4km/h 12mph /  19.3km/h 64.4% 0in /  0.0mm
05:09 53.2 °F /  11.8 °C 41.7 °F /  5.4 °C 30in /  1014.9hPa SSO 5.2mph /  8.4km/h 11.4mph /  18.3km/h 65% 0in /  0.0mm
05:14 53.2 °F /  11.8 °C 41.7 °F /  5.4 °C 30in /  1014.9hPa SO 5.3mph /  8.5km/h 11mph /  17.7km/h 64.7% 0in /  0.0mm
05:19 53.2 °F /  11.8 °C 41.4 °F /  5.2 °C 30in /  1014.9hPa SO 5.4mph /  8.7km/h 11mph /  17.7km/h 64% 0in /  0.0mm
05:24 53.2 °F /  11.8 °C 41.4 °F /  5.2 °C 30in /  1015.1hPa SO 5.4mph /  8.7km/h 11.2mph /  18km/h 64% 0in /  0.0mm
05:29 53.2 °F /  11.8 °C 41.4 °F /  5.2 °C 30in /  1015.1hPa SO 5.4mph /  8.7km/h 12mph /  19.3km/h 64% 0in /  0.0mm
05:34 53.2 °F /  11.8 °C 41.4 °F /  5.2 °C 30in /  1015.1hPa SO 5.4mph /  8.7km/h 12.5mph /  20.1km/h 64% 0in /  0.0mm
05:39 53.2 °F /  11.8 °C 41.2 °F /  5.1 °C 30in /  1015.2hPa OSO 5.4mph /  8.7km/h 13mph /  20.9km/h 63.3% 0in /  0.0mm
05:44 53.2 °F /  11.8 °C 41 °F /  5 °C 30in /  1015.2hPa SO 5.8mph /  9.3km/h 13mph /  20.9km/h 63% 0in /  0.0mm
05:49 53.2 °F /  11.8 °C 41 °F /  5 °C 30in /  1015.2hPa SO 6.2mph /  10km/h 13mph /  20.9km/h 63% 0in /  0.0mm
05:54 53.2 °F /  11.8 °C 41 °F /  5 °C 30in /  1015.2hPa SSO 5.7mph /  9.1km/h 8.1mph /  13km/h 63% 0in /  0.0mm
05:59 53.1 °F /  11.7 °C 40.8 °F /  4.9 °C 30in /  1015.2hPa SSO 5.2mph /  8.4km/h 8.5mph /  13.7km/h 63% 0in /  0.0mm
06:04 53.1 °F /  11.7 °C 41 °F /  5 °C 30in /  1015.2hPa Sur 4.7mph /  7.6km/h 9.2mph /  14.8km/h 63.6% 0in /  0.0mm
06:09 52.7 °F /  11.5 °C 41 °F /  5 °C 30in /  1015.4hPa Sur 4.3mph /  6.9km/h 9mph /  14.5km/h 64.5% 0in /  0.0mm
06:14 52.3 °F /  11.3 °C 41 °F /  5 °C 30in /  1015.4hPa Sur 4mph /  6.4km/h 6.2mph /  10km/h 65.2% 0in /  0.0mm
06:19 52.2 °F /  11.2 °C 41 °F /  5 °C 30in /  1015.4hPa Sur 3.6mph /  5.8km/h 6.2mph /  10km/h 66% 0in /  0.0mm
06:24 51.6 °F /  10.9 °C 41 °F /  5 °C 30in /  1015.8hPa Sur 3.9mph /  6.3km/h 7.4mph /  11.9km/h 66.7% 0in /  0.0mm
06:29 51.4 °F /  10.8 °C 41 °F /  5 °C 30in /  1015.8hPa Sur 4.3mph /  6.9km/h 9.2mph /  14.8km/h 67.5% 0in /  0.0mm
06:34 51.1 °F /  10.6 °C 41 °F /  5 °C 30in /  1015.8hPa SSO 4.8mph /  7.8km/h 9.2mph /  14.8km/h 68% 0in /  0.0mm
06:39 51.1 °F /  10.6 °C 40.8 °F /  4.9 °C 30in /  1015.8hPa SSO 5.4mph /  8.7km/h 9.2mph /  14.8km/h 68% 0in /  0.0mm
06:44 51.1 °F /  10.6 °C 40.8 °F /  4.9 °C 30in /  1015.8hPa SSO 5.7mph /  9.1km/h 9.2mph /  14.8km/h 68% 0in /  0.0mm
06:49 51.3 °F /  10.7 °C 41.2 °F /  5.1 °C 30in /  1015.8hPa SSO 5.9mph /  9.5km/h 10.4mph /  16.7km/h 68% 0in /  0.0mm
06:54 51.3 °F /  10.7 °C 41.2 °F /  5.1 °C 30in /  1016.0hPa SSO 6.2mph /  9.9km/h 10.4mph /  16.7km/h 68% 0in /  0.0mm
06:59 51.3 °F /  10.7 °C 40.8 °F /  4.9 °C 30in /  1016.0hPa SSO 6.4mph /  10.3km/h 10.4mph /  16.7km/h 67.3% 0in /  0.0mm
07:04 51.3 °F /  10.7 °C 40.8 °F /  4.9 °C 30in /  1016.0hPa SO 6.4mph /  10.3km/h 12.5mph /  20.1km/h 67% 0in /  0.0mm
07:09 51.4 °F /  10.8 °C 40.8 °F /  4.9 °C 30in /  1016.1hPa SO 6.4mph /  10.3km/h 13mph /  20.9km/h 67% 0in /  0.0mm
07:14 51.4 °F /  10.8 °C 40.8 °F /  4.9 °C 30in /  1016.1hPa SSO 5.9mph /  9.5km/h 10.4mph /  16.7km/h 67% 0in /  0.0mm
07:19 51.4 °F /  10.8 °C 40.8 °F /  4.9 °C 30in /  1016.1hPa SSO 5.4mph /  8.7km/h 10.4mph /  16.7km/h 67% 0in /  0.0mm
07:24 51.4 °F /  10.8 °C 40.8 °F /  4.9 °C 30in /  1016.3hPa SSO 5.9mph /  9.5km/h 10.4mph /  16.7km/h 67% 0in /  0.0mm
07:29 51.3 °F /  10.7 °C 40.6 °F /  4.8 °C 30in /  1016.3hPa SSO 6.4mph /  10.3km/h 10.2mph /  16.4km/h 67% 0in /  0.0mm
07:34 51.4 °F /  10.8 °C 40.8 °F /  4.9 °C 30in /  1016.3hPa SSO 6.4mph /  10.3km/h 10.4mph /  16.7km/h 67% 0in /  0.0mm
07:39 51.4 °F /  10.8 °C 40.5 °F /  4.7 °C 30in /  1016.5hPa SSO 6.4mph /  10.3km/h 10mph /  16.1km/h 66% 0in /  0.0mm
07:44 51.4 °F /  10.8 °C 40.5 °F /  4.7 °C 30in /  1016.5hPa Sur 6.3mph /  10.2km/h 9.2mph /  14.8km/h 66.2% 0in /  0.0mm
07:49 50.9 °F /  10.5 °C 40.5 °F /  4.7 °C 30in /  1016.5hPa SSO 6.2mph /  10km/h 12.7mph /  20.4km/h 67.5% 0in /  0.0mm
07:54 50.4 °F /  10.2 °C 40.5 °F /  4.7 °C 30in /  1016.7hPa SSO 6.8mph /  10.9km/h 13mph /  20.9km/h 68.8% 0in /  0.0mm
07:59 49.8 °F /  9.9 °C 40.3 °F /  4.6 °C 30in /  1016.7hPa SSO 7.4mph /  11.9km/h 12mph /  19.3km/h 69.6% 0in /  0.0mm
08:04 49.8 °F /  9.9 °C 40.5 °F /  4.7 °C 30in /  1016.7hPa SSO 6.8mph /  11km/h 12mph /  19.3km/h 70% 0in /  0.0mm
08:09 49.8 °F /  9.9 °C 40.5 °F /  4.7 °C 30in /  1016.9hPa SSO 6.4mph /  10.3km/h 12.7mph /  20.4km/h 70% 0in /  0.0mm
08:14 50 °F /  10 °C 40.3 °F /  4.6 °C 30in /  1016.9hPa SSO 7mph /  11.3km/h 13.8mph /  22.2km/h 69.2% 0in /  0.0mm
08:19 50.2 °F /  10.1 °C 40.5 °F /  4.7 °C 30in /  1016.9hPa SO 7.6mph /  12.2km/h 14mph /  22.5km/h 69% 0in /  0.0mm
08:24 50.4 °F /  10.2 °C 40.3 °F /  4.6 °C 30in /  1017.0hPa SSO 7.6mph /  12.2km/h 12.3mph /  19.8km/h 68% 0in /  0.0mm
08:29 50.4 °F /  10.2 °C 40.5 °F /  4.7 °C 30in /  1017.0hPa SSO 7.6mph /  12.2km/h 13mph /  20.9km/h 68.7% 0in /  0.0mm
08:34 50.4 °F /  10.2 °C 40.1 °F /  4.5 °C 30in /  1017.0hPa SSO 7.3mph /  11.7km/h 12mph /  19.3km/h 68% 0in /  0.0mm
08:39 50.4 °F /  10.2 °C 40.3 °F /  4.6 °C 30in /  1017.0hPa SSO 6.9mph /  11.1km/h 12mph /  19.3km/h 68% 0in /  0.0mm
08:44 50.4 °F /  10.2 °C 40.3 °F /  4.6 °C 30in /  1017.0hPa SSO 7.1mph /  11.5km/h 11.4mph /  18.3km/h 68% 0in /  0.0mm
08:49 50.4 °F /  10.2 °C 40.3 °F /  4.6 °C 30in /  1017.0hPa SSO 7.4mph /  11.9km/h 15mph /  24.1km/h 68% 0in /  0.0mm
08:54 50.5 °F /  10.3 °C 40.5 °F /  4.7 °C 30in /  1017.0hPa SO 7.1mph /  11.5km/h 15mph /  24.1km/h 68% 0in /  0.0mm
08:59 50.7 °F /  10.4 °C 40.3 °F /  4.6 °C 30in /  1016.9hPa SSO 6.9mph /  11.1km/h 13mph /  20.9km/h 67.4% 0in /  0.0mm
09:04 50.9 °F /  10.5 °C 40.3 °F /  4.6 °C 30in /  1016.9hPa SSO 7.3mph /  11.7km/h 13.8mph /  22.2km/h 67% 0in /  0.0mm
09:09 51.1 °F /  10.6 °C 40.5 °F /  4.7 °C 30in /  1017.1hPa SSO 7.6mph /  12.2km/h 14mph /  22.5km/h 66.9% 0in /  0.0mm
09:14 51.3 °F /  10.7 °C 40.3 °F /  4.6 °C 30in /  1017.1hPa SSO 7.6mph /  12.2km/h 13mph /  20.9km/h 66% 0in /  0.0mm
09:19 51.3 °F /  10.7 °C 40.3 °F /  4.6 °C 30in /  1017.1hPa SSO 7.6mph /  12.2km/h 14mph /  22.5km/h 66% 0in /  0.0mm
09:24 51.3 °F /  10.7 °C 40.3 °F /  4.6 °C 30in /  1017.2hPa SSO 7.6mph /  12.2km/h 16.1mph /  25.9km/h 66% 0in /  0.0mm
09:29 51.3 °F /  10.7 °C 40.3 °F /  4.6 °C 30in /  1017.2hPa SO 7.6mph /  12.2km/h 16mph /  25.7km/h 66% 0in /  0.0mm
09:34 51.3 °F /  10.7 °C 40.3 °F /  4.6 °C 30in /  1017.2hPa SSO 7.3mph /  11.7km/h 15mph /  24.1km/h 66% 0in /  0.0mm
09:39 51.3 °F /  10.7 °C 40.5 °F /  4.7 °C 30.1in /  1017.5hPa SO 6.9mph /  11.1km/h 15.2mph /  24.5km/h 66% 0in /  0.0mm
09:44 51.4 °F /  10.8 °C 40.1 °F /  4.5 °C 30.1in /  1017.5hPa SO 7.5mph /  12.1km/h 15mph /  24.1km/h 65.1% 0in /  0.0mm
09:49 51.6 °F /  10.9 °C 40.3 °F /  4.6 °C 30.1in /  1017.5hPa SO 8.1mph /  13km/h 14mph /  22.5km/h 65% 0in /  0.0mm
09:54 51.8 °F /  11 °C 40.1 °F /  4.5 °C 30.1in /  1017.9hPa SSO 7.8mph /  12.5km/h 12mph /  19.3km/h 64.3% 0in /  0.0mm
09:59 52.2 °F /  11.2 °C 40.3 °F /  4.6 °C 30.1in /  1017.9hPa SSO 7.4mph /  11.9km/h 12mph /  19.3km/h 64% 0in /  0.0mm
10:04 52.3 °F /  11.3 °C 40.1 °F /  4.5 °C 30.1in /  1017.9hPa SSO 6.8mph /  11km/h 12.7mph /  20.4km/h 62.7% 0in /  0.0mm
10:09 52.9 °F /  11.6 °C 40.1 °F /  4.5 °C 30.1in /  1017.9hPa SSO 6.4mph /  10.3km/h 14mph /  22.5km/h 61.9% 0in /  0.0mm
10:14 53.1 °F /  11.7 °C 40.1 °F /  4.5 °C 30.1in /  1017.9hPa SO 6.9mph /  11.1km/h 14mph /  22.5km/h 61% 0in /  0.0mm
10:19 53.4 °F /  11.9 °C 40.3 °F /  4.6 °C 30.1in /  1017.9hPa SO 7.4mph /  11.9km/h 14mph /  22.5km/h 61% 0in /  0.0mm
10:24 53.6 °F /  12 °C 40.3 °F /  4.6 °C 30.1in /  1017.9hPa SO 6.9mph /  11.1km/h 14mph /  22.5km/h 60.5% 0in /  0.0mm
10:29 54 °F /  12.2 °C 40.3 °F /  4.6 °C 30.1in /  1017.9hPa OSO 6.4mph /  10.3km/h 13mph /  20.9km/h 60% 0in /  0.0mm
10:34 54.1 °F /  12.3 °C 40.3 °F /  4.6 °C 30.1in /  1017.9hPa SO 6.4mph /  10.3km/h 15mph /  24.1km/h 59.4% 0in /  0.0mm
10:39 54.5 °F /  12.5 °C 40.1 °F /  4.5 °C 30.1in /  1018.0hPa SO 6.4mph /  10.3km/h 17.3mph /  27.8km/h 58.3% 0in /  0.0mm
10:44 54.9 °F /  12.7 °C 39.9 °F /  4.4 °C 30.1in /  1018.0hPa OSO 8.6mph /  13.9km/h 20.7mph /  33.3km/h 57.4% 0in /  0.0mm
10:49 55 °F /  12.8 °C 39.9 °F /  4.4 °C 30.1in /  1018.0hPa OSO 10.7mph /  17.2km/h 21mph /  33.8km/h 56.8% 0in /  0.0mm
10:54 55.2 °F /  12.9 °C 39.7 °F /  4.3 °C 30.1in /  1018.2hPa SO 11.5mph /  18.5km/h 21mph /  33.8km/h 56% 0in /  0.0mm
10:59 55.2 °F /  12.9 °C 40.1 °F /  4.5 °C 30.1in /  1018.2hPa SO 12.3mph /  19.8km/h 19mph /  30.6km/h 56.5% 0in /  0.0mm
11:04 55.4 °F /  13 °C 40.3 °F /  4.6 °C 30.1in /  1018.2hPa SSO 10.9mph /  17.5km/h 16.1mph /  25.9km/h 56.5% 0in /  0.0mm
11:09 55.6 °F /  13.1 °C 40.1 °F /  4.5 °C 30.1in /  1018.3hPa SO 9.7mph /  15.6km/h 16.3mph /  26.2km/h 56% 0in /  0.0mm
11:14 55.9 °F /  13.3 °C 40.3 °F /  4.6 °C 30.1in /  1018.3hPa SO 9.4mph /  15.2km/h 16.1mph /  25.9km/h 55.8% 0in /  0.0mm
11:19 56.1 °F /  13.4 °C 39.9 °F /  4.4 °C 30.1in /  1018.3hPa SO 9.2mph /  14.8km/h 16.1mph /  25.9km/h 54.4% 0in /  0.0mm
11:24 56.5 °F /  13.6 °C 39.7 °F /  4.3 °C 30.1in /  1018.3hPa SO 8.8mph /  14.2km/h 16.1mph /  25.9km/h 53.5% 0in /  0.0mm
11:29 56.7 °F /  13.7 °C 39.7 °F /  4.3 °C 30.1in /  1018.3hPa SO 8.5mph /  13.7km/h 16mph /  25.7km/h 53% 0in /  0.0mm
11:34 57 °F /  13.9 °C 39.9 °F /  4.4 °C 30.1in /  1018.3hPa SO 8mph /  12.9km/h 15mph /  24.1km/h 52.5% 0in /  0.0mm
11:39 57.4 °F /  14.1 °C 39.6 °F /  4.2 °C 30.1in /  1018.3hPa OSO 7.6mph /  12.2km/h 15mph /  24.1km/h 51.3% 0in /  0.0mm
11:44 57.7 °F /  14.3 °C 39.7 °F /  4.3 °C 30.1in /  1018.3hPa SO 8.1mph /  13.1km/h 15mph /  24.1km/h 51% 0in /  0.0mm
11:49 57.9 °F /  14.4 °C 39.7 °F /  4.3 °C 30.1in /  1018.3hPa OSO 8.7mph /  14km/h 14mph /  22.5km/h 50.8% 0in /  0.0mm
11:54 58.1 °F /  14.5 °C 39.6 °F /  4.2 °C 30.1in /  1018.3hPa OSO 8.4mph /  13.5km/h 17.3mph /  27.8km/h 50.1% 0in /  0.0mm
11:59 58.3 °F /  14.6 °C 39.6 °F /  4.2 °C 30.1in /  1018.1hPa OSO 8.1mph /  13km/h 17mph /  27.4km/h 49.8% 0in /  0.0mm
12:04 58.5 °F /  14.7 °C 39.2 °F /  4 °C 30.1in /  1018.1hPa OSO 9.1mph /  14.7km/h 19.6mph /  31.5km/h 48.7% 0in /  0.0mm
12:09 58.5 °F /  14.7 °C 38.8 °F /  3.8 °C 30.1in /  1018.1hPa Oeste 10mph /  16.1km/h 20mph /  32.2km/h 48% 0in /  0.0mm
12:14 58.6 °F /  14.8 °C 39 °F /  3.9 °C 30.1in /  1018.0hPa Oeste 10.9mph /  17.6km/h 19mph /  30.6km/h 48.1% 0in /  0.0mm
12:19 58.8 °F /  14.9 °C 39 °F /  3.9 °C 30.1in /  1018.0hPa Oeste 11.8mph /  19km/h 18mph /  29km/h 47.7% 0in /  0.0mm
12:24 59 °F /  15 °C 39 °F /  3.9 °C 30.1in /  1018.0hPa Oeste 10.7mph /  17.3km/h 21.5mph /  34.6km/h 47.5% 0in /  0.0mm
12:29 58.8 °F /  14.9 °C 38.8 °F /  3.8 °C 30.1in /  1017.9hPa OSO 9.7mph /  15.6km/h 22mph /  35.4km/h 47.1% 0in /  0.0mm
12:34 59.2 °F /  15.1 °C 38.8 °F /  3.8 °C 30.1in /  1017.9hPa Oeste 10.4mph /  16.8km/h 22.3mph /  35.9km/h 47% 0in /  0.0mm
12:39 59 °F /  15 °C 39 °F /  3.9 °C 30.1in /  1017.9hPa Oeste 11.2mph /  18km/h 22mph /  35.4km/h 47.4% 0in /  0.0mm
12:44 59.4 °F /  15.2 °C 39.2 °F /  4 °C 30.1in /  1017.7hPa Oeste 11.2mph /  18km/h 21mph /  33.8km/h 47.2% 0in /  0.0mm
12:49 59.4 °F /  15.2 °C 39 °F /  3.9 °C 30.1in /  1017.7hPa OSO 11.2mph /  18km/h 20.7mph /  33.3km/h 47% 0in /  0.0mm
12:54 59.4 °F /  15.2 °C 39.4 °F /  4.1 °C 30.1in /  1017.7hPa Oeste 11mph /  17.7km/h 21mph /  33.8km/h 47.5% 0in /  0.0mm
12:59 59.4 °F /  15.2 °C 39.4 °F /  4.1 °C 30.1in /  1017.6hPa Oeste 10.7mph /  17.2km/h 22.3mph /  35.9km/h 47.5% 0in /  0.0mm
13:04 59.5 °F /  15.3 °C 39.4 °F /  4.1 °C 30.1in /  1017.6hPa Oeste 10.7mph /  17.2km/h 22mph /  35.4km/h 47.4% 0in /  0.0mm
13:09 59.5 °F /  15.3 °C 39.4 °F /  4.1 °C 30.1in /  1017.6hPa OSO 10.7mph /  17.2km/h 20.8mph /  33.5km/h 47.3% 0in /  0.0mm
13:14 59.5 °F /  15.3 °C 39.4 °F /  4.1 °C 30.1in /  1017.5hPa Oeste 10.9mph /  17.6km/h 21mph /  33.8km/h 47.2% 0in /  0.0mm
13:19 59.7 °F /  15.4 °C 39.4 °F /  4.1 °C 30.1in /  1017.5hPa Oeste 11.2mph /  18km/h 21mph /  33.8km/h 47% 0in /  0.0mm
13:24 60.1 °F /  15.6 °C 39.7 °F /  4.3 °C 30.1in /  1017.5hPa Oeste 10.4mph /  16.8km/h 19mph /  30.6km/h 47% 0in /  0.0mm
13:29 60.1 °F /  15.6 °C 39.6 °F /  4.2 °C 30in /  1017.2hPa Oeste 9.7mph /  15.6km/h 20.7mph /  33.3km/h 46.7% 0in /  0.0mm
13:34 60.3 °F /  15.7 °C 39.2 °F /  4 °C 30in /  1017.2hPa Oeste 10.5mph /  16.9km/h 21mph /  33.8km/h 46% 0in /  0.0mm
13:39 60.3 °F /  15.7 °C 39.4 °F /  4.1 °C 30in /  1017.3hPa Oeste 11.2mph /  18km/h 21mph /  33.8km/h 46% 0in /  0.0mm
13:44 60.4 °F /  15.8 °C 39.4 °F /  4.1 °C 30in /  1017.3hPa OSO 10.9mph /  17.6km/h 21.3mph /  34.3km/h 45.7% 0in /  0.0mm
13:49 60.6 °F /  15.9 °C 39.4 °F /  4.1 °C 30in /  1017.3hPa Oeste 10.7mph /  17.2km/h 21mph /  33.8km/h 45.3% 0in /  0.0mm
13:54 60.8 °F /  16 °C 39.4 °F /  4.1 °C 30in /  1017.3hPa ONO 10.4mph /  16.8km/h 26.1mph /  42km/h 45% 0in /  0.0mm
13:59 61 °F /  16.1 °C 39.4 °F /  4.1 °C 30in /  1017.1hPa Oeste 10.2mph /  16.4km/h 26.5mph /  42.6km/h 45% 0in /  0.0mm
14:04 61 °F /  16.1 °C 39 °F /  3.9 °C 30in /  1017.1hPa Oeste 11.1mph /  17.8km/h 21.9mph /  35.2km/h 44.3% 0in /  0.0mm
14:09 61 °F /  16.1 °C 38.8 °F /  3.8 °C 30in /  1017.1hPa Oeste 11.8mph /  19km/h 22mph /  35.4km/h 44% 0in /  0.0mm
14:14 61.2 °F /  16.2 °C 39 °F /  3.9 °C 30in /  1016.8hPa OSO 12.1mph /  19.4km/h 21mph /  33.8km/h 44% 0in /  0.0mm
14:19 61.2 °F /  16.2 °C 39.2 °F /  4 °C 30in /  1016.8hPa Oeste 12.3mph /  19.8km/h 17.5mph /  28.2km/h 44% 0in /  0.0mm
14:24 61.2 °F /  16.2 °C 39 °F /  3.9 °C 30in /  1016.8hPa OSO 11.1mph /  17.9km/h 17mph /  27.4km/h 44% 0in /  0.0mm
14:29 61.2 °F /  16.2 °C 39 °F /  3.9 °C 30in /  1016.8hPa OSO 10mph /  16.1km/h 16mph /  25.7km/h 43.8% 0in /  0.0mm
14:34 61.3 °F /  16.3 °C 38.8 °F /  3.8 °C 30in /  1016.8hPa Oeste 8.4mph /  13.5km/h 16.1mph /  25.9km/h 43.4% 0in /  0.0mm
14:39 61.3 °F /  16.3 °C 39 °F /  3.9 °C 30in /  1016.8hPa OSO 6.9mph /  11.1km/h 16.1mph /  25.9km/h 43.5% 0in /  0.0mm
14:44 61.7 °F /  16.5 °C 38.5 °F /  3.6 °C 30in /  1016.6hPa OSO 7.5mph /  12km/h 18.4mph /  29.6km/h 42.3% 0in /  0.0mm
14:49 61.7 °F /  16.5 °C 38.5 °F /  3.6 °C 30in /  1016.6hPa OSO 8.1mph /  13km/h 18mph /  29km/h 42% 0in /  0.0mm
14:54 61.9 °F /  16.6 °C 38.1 °F /  3.4 °C 30in /  1016.6hPa OSO 8.3mph /  13.4km/h 15mph /  24.1km/h 41.3% 0in /  0.0mm
14:59 62.1 °F /  16.7 °C 38.3 °F /  3.5 °C 30in /  1016.6hPa Oeste 8.5mph /  13.7km/h 14mph /  22.5km/h 41.4% 0in /  0.0mm
15:04 62.1 °F /  16.7 °C 37.6 °F /  3.1 °C 30in /  1016.6hPa Oeste 8mph /  12.9km/h 14mph /  22.5km/h 40.4% 0in /  0.0mm
15:09 62.1 °F /  16.7 °C 37.4 °F /  3 °C 30in /  1016.6hPa Oeste 7.6mph /  12.2km/h 17.3mph /  27.8km/h 40% 0in /  0.0mm
15:14 62.1 °F /  16.7 °C 36.7 °F /  2.6 °C 30in /  1016.6hPa ONO 8.7mph /  14km/h 17.3mph /  27.8km/h 38.9% 0in /  0.0mm
15:19 62.1 °F /  16.7 °C 36.7 °F /  2.6 °C 30in /  1016.6hPa Oeste 9.7mph /  15.6km/h 17mph /  27.4km/h 38.9% 0in /  0.0mm
15:24 62.2 °F /  16.8 °C 37 °F /  2.8 °C 30in /  1016.6hPa OSO 8.9mph /  14.3km/h 15mph /  24.1km/h 39% 0in /  0.0mm
15:29 62.4 °F /  16.9 °C 36.9 °F /  2.7 °C 30in /  1016.4hPa OSO 8.1mph /  13km/h 12mph /  19.3km/h 38.6% 0in /  0.0mm
15:34 62.4 °F /  16.9 °C 36.5 °F /  2.5 °C 30in /  1016.4hPa OSO 7.2mph /  11.6km/h 12mph /  19.3km/h 38% 0in /  0.0mm
15:39 62.4 °F /  16.9 °C 36.3 °F /  2.4 °C 30in /  1016.5hPa Oeste 6.4mph /  10.3km/h 12.7mph /  20.4km/h 37.8% 0in /  0.0mm
15:44 62.2 °F /  16.8 °C 35.8 °F /  2.1 °C 30in /  1016.5hPa ONO 6.6mph /  10.7km/h 13mph /  20.9km/h 37% 0in /  0.0mm
15:49 62.2 °F /  16.8 °C 35.6 °F /  2 °C 30in /  1016.5hPa Oeste 6.9mph /  11.1km/h 12mph /  19.3km/h 37% 0in /  0.0mm
15:54 62.4 °F /  16.9 °C 35.4 °F /  1.9 °C 30in /  1016.6hPa Oeste 6.9mph /  11.1km/h 15.2mph /  24.5km/h 36.4% 0in /  0.0mm
15:59 62.4 °F /  16.9 °C 35.6 °F /  2 °C 30in /  1016.6hPa Oeste 6.9mph /  11.1km/h 15mph /  24.1km/h 36.6% 0in /  0.0mm
16:04 62.4 °F /  16.9 °C 35.4 °F /  1.9 °C 30in /  1016.6hPa Oeste 7.1mph /  11.5km/h 15mph /  24.1km/h 36.5% 0in /  0.0mm
16:09 62.4 °F /  16.9 °C 35.2 °F /  1.8 °C 30in /  1016.7hPa ONO 7.4mph /  11.9km/h 10mph /  16.1km/h 36.2% 0in /  0.0mm
16:14 62.4 °F /  16.9 °C 35.1 °F /  1.7 °C 30in /  1016.7hPa ONO 6.8mph /  10.9km/h 11.5mph /  18.5km/h 36% 0in /  0.0mm
16:19 62.4 °F /  16.9 °C 35.1 °F /  1.7 °C 30in /  1016.7hPa Oeste 6.2mph /  10km/h 12mph /  19.3km/h 36% 0in /  0.0mm
16:24 62.4 °F /  16.9 °C 34.3 °F /  1.3 °C 30in /  1016.7hPa Oeste 6mph /  9.7km/h 9mph /  14.5km/h 35% 0in /  0.0mm
16:29 62.6 °F /  17 °C 34.5 °F /  1.4 °C 30in /  1016.7hPa ONO 5.9mph /  9.5km/h 9.2mph /  14.8km/h 35% 0in /  0.0mm
16:34 62.6 °F /  17 °C 34.5 °F /  1.4 °C 30in /  1016.7hPa ONO 5.1mph /  8.2km/h 9mph /  14.5km/h 35% 0in /  0.0mm
16:39 62.8 °F /  17.1 °C 35.1 °F /  1.7 °C 30in /  1016.8hPa ONO 4.3mph /  6.9km/h 6mph /  9.7km/h 35.5% 0in /  0.0mm
16:44 63.1 °F /  17.3 °C 34.9 °F /  1.6 °C 30in /  1016.8hPa SO 3.7mph /  6km/h 7.4mph /  11.9km/h 35% 0in /  0.0mm
16:49 63.1 °F /  17.3 °C 34.5 °F /  1.4 °C 30in /  1016.8hPa OSO 3.1mph /  5km/h 7mph /  11.3km/h 34.3% 0in /  0.0mm
16:54 63.1 °F /  17.3 °C 34 °F /  1.1 °C 30in /  1016.9hPa SO 3.4mph /  5.4km/h 7mph /  11.3km/h 33.6% 0in /  0.0mm
16:59 63.1 °F /  17.3 °C 34.2 °F /  1.2 °C 30in /  1016.9hPa OSO 3.6mph /  5.8km/h 7mph /  11.3km/h 33.8% 0in /  0.0mm
17:04 63.1 °F /  17.3 °C 34.3 °F /  1.3 °C 30in /  1016.9hPa OSO 3.3mph /  5.3km/h 5.9mph /  9.5km/h 34% 0in /  0.0mm
17:09 63.1 °F /  17.3 °C 34.3 °F /  1.3 °C 30in /  1017.0hPa Oeste 3.1mph /  5km/h 6mph /  9.7km/h 34% 0in /  0.0mm
17:14 63.1 °F /  17.3 °C 34.3 °F /  1.3 °C 30in /  1017.0hPa Oeste 3.1mph /  5km/h 6mph /  9.7km/h 34% 0in /  0.0mm
17:19 63.1 °F /  17.3 °C 34.3 °F /  1.3 °C 30in /  1017.0hPa OSO 3.1mph /  5km/h 5.2mph /  8.4km/h 34.2% 0in /  0.0mm
17:24 63 °F /  17.2 °C 34.3 °F /  1.3 °C 30in /  1017.1hPa OSO 2.7mph /  4.4km/h 5.2mph /  8.4km/h 34.4% 0in /  0.0mm
17:29 62.4 °F /  16.9 °C 33.8 °F /  1 °C 30in /  1017.1hPa OSO 2.4mph /  3.9km/h 5.8mph /  9.3km/h 34% 0in /  0.0mm
17:34 62.2 °F /  16.8 °C 34.2 °F /  1.2 °C 30in /  1017.1hPa OSO 2.7mph /  4.3km/h 6mph /  9.7km/h 34.9% 0in /  0.0mm
17:39 62.1 °F /  16.7 °C 33.8 °F /  1 °C 30in /  1017.1hPa OSO 2.9mph /  4.6km/h 5mph /  8km/h 34.6% 0in /  0.0mm
17:44 61.9 °F /  16.6 °C 33.8 °F /  1 °C 30in /  1017.1hPa OSO 2.6mph /  4.2km/h 5mph /  8km/h 35% 0in /  0.0mm
17:49 61.5 °F /  16.4 °C 33.6 °F /  0.9 °C 30in /  1017.1hPa OSO 2.4mph /  3.9km/h 3.5mph /  5.6km/h 35.1% 0in /  0.0mm
17:54 61.3 °F /  16.3 °C 33.4 °F /  0.8 °C 30in /  1017.1hPa OSO 1.9mph /  3km/h 3mph /  4.8km/h 35% 0in /  0.0mm
17:59 61.3 °F /  16.3 °C 33.4 °F /  0.8 °C 30in /  1017.1hPa SO 1.4mph /  2.2km/h 4.7mph /  7.6km/h 35.2% 0in /  0.0mm
18:04 61 °F /  16.1 °C 35.6 °F /  2 °C 30in /  1017.1hPa SE 1.9mph /  3.1km/h 6.4mph /  10.3km/h 38.9% 0in /  0.0mm
18:09 60.1 °F /  15.6 °C 36.5 °F /  2.5 °C 30in /  1017.3hPa SSE 2.4mph /  3.9km/h 7mph /  11.3km/h 41.4% 0in /  0.0mm
18:14 59.4 °F /  15.2 °C 36.9 °F /  2.7 °C 30in /  1017.3hPa SE 3mph /  4.8km/h 6mph /  9.7km/h 42.8% 0in /  0.0mm
18:19 58.6 °F /  14.8 °C 36.7 °F /  2.6 °C 30in /  1017.3hPa SE 3.6mph /  5.8km/h 6.2mph /  10km/h 44% 0in /  0.0mm
18:24 57.9 °F /  14.4 °C 36.9 °F /  2.7 °C 30in /  1017.3hPa SE 3.9mph /  6.3km/h 6mph /  9.7km/h 45.5% 0in /  0.0mm
18:29 57.4 °F /  14.1 °C 37.2 °F /  2.9 °C 30in /  1017.3hPa SE 4.3mph /  6.9km/h 6.2mph /  10km/h 46.6% 0in /  0.0mm
18:34 57 °F /  13.9 °C 37 °F /  2.8 °C 30in /  1017.3hPa SE 4.2mph /  6.7km/h 6.2mph /  10km/h 47% 0in /  0.0mm
18:39 56.7 °F /  13.7 °C 37.2 °F /  2.9 °C 30.1in /  1017.5hPa SSE 4mph /  6.5km/h 6mph /  9.7km/h 47.8% 0in /  0.0mm
18:44 56.7 °F /  13.7 °C 37 °F /  2.8 °C 30.1in /  1017.5hPa SE 4mph /  6.5km/h 6mph /  9.7km/h 48% 0in /  0.0mm
18:49 56.5 °F /  13.6 °C 37 °F /  2.8 °C 30.1in /  1017.5hPa SE 4mph /  6.5km/h 6mph /  9.7km/h 48.2% 0in /  0.0mm
18:54 56.1 °F /  13.4 °C 37.2 °F /  2.9 °C 30.1in /  1017.5hPa SE 4mph /  6.5km/h 6mph /  9.7km/h 49% 0in /  0.0mm
18:59 55.9 °F /  13.3 °C 37.4 °F /  3 °C 30in /  1017.4hPa SSE 4mph /  6.5km/h 6mph /  9.7km/h 49.6% 0in /  0.0mm
19:04 55.8 °F /  13.2 °C 37.4 °F /  3 °C 30in /  1017.4hPa SSE 3.8mph /  6.1km/h 6mph /  9.7km/h 50% 0in /  0.0mm
19:09 55.8 °F /  13.2 °C 37.6 °F /  3.1 °C 30.1in /  1017.7hPa SSE 3.6mph /  5.8km/h 5.2mph /  8.4km/h 50.6% 0in /  0.0mm
19:14 55.4 °F /  13 °C 37.8 °F /  3.2 °C 30.1in /  1017.7hPa Sur 3.4mph /  5.4km/h 8.1mph /  13km/h 51.3% 0in /  0.0mm
19:19 55.2 °F /  12.9 °C 37.8 °F /  3.2 °C 30.1in /  1017.7hPa SSO 3.1mph /  5km/h 8mph /  12.9km/h 51.8% 0in /  0.0mm
19:24 55.2 °F /  12.9 °C 38.5 °F /  3.6 °C 30.1in /  1018.0hPa SSO 3.7mph /  6km/h 10.4mph /  16.7km/h 53.2% 0in /  0.0mm
19:29 55.4 °F /  13 °C 39.2 °F /  4 °C 30.1in /  1018.0hPa SSO 4.3mph /  6.9km/h 11.8mph /  19km/h 54.5% 0in /  0.0mm
19:34 55.2 °F /  12.9 °C 39.7 °F /  4.3 °C 30.1in /  1018.0hPa SSO 5.7mph /  9.1km/h 12mph /  19.3km/h 55.6% 0in /  0.0mm
19:39 55.2 °F /  12.9 °C 40.1 °F /  4.5 °C 30.1in /  1018.1hPa SSO 6.9mph /  11.1km/h 14mph /  22.5km/h 57% 0in /  0.0mm
19:44 55 °F /  12.8 °C 40.5 °F /  4.7 °C 30.1in /  1018.1hPa SO 7.3mph /  11.7km/h 14mph /  22.5km/h 57.9% 0in /  0.0mm
19:49 54.9 °F /  12.7 °C 40.6 °F /  4.8 °C 30.1in /  1018.1hPa SO 7.6mph /  12.2km/h 12mph /  19.3km/h 58.4% 0in /  0.0mm
19:54 54.9 °F /  12.7 °C 41 °F /  5 °C 30.1in /  1018.5hPa SO 6.5mph /  10.4km/h 10.2mph /  16.4km/h 59.4% 0in /  0.0mm
19:59 54.7 °F /  12.6 °C 41.2 °F /  5.1 °C 30.1in /  1018.5hPa SO 5.4mph /  8.7km/h 10mph /  16.1km/h 60.4% 0in /  0.0mm
20:04 54.3 °F /  12.4 °C 41.5 °F /  5.3 °C 30.1in /  1018.5hPa SO 5mph /  8.1km/h 9mph /  14.5km/h 61.6% 0in /  0.0mm
20:09 54.3 °F /  12.4 °C 42.1 °F /  5.6 °C 30.1in /  1018.5hPa SO 4.7mph /  7.6km/h 11.8mph /  19km/h 63% 0in /  0.0mm
20:14 54.3 °F /  12.4 °C 42.4 °F /  5.8 °C 30.1in /  1018.5hPa SSO 5mph /  8km/h 12mph /  19.3km/h 64% 0in /  0.0mm
20:19 54.3 °F /  12.4 °C 42.6 °F /  5.9 °C 30.1in /  1018.5hPa Sur 5.2mph /  8.4km/h 8mph /  12.9km/h 64.9% 0in /  0.0mm
20:24 54.1 °F /  12.3 °C 42.3 °F /  5.7 °C 30.1in /  1018.5hPa SSE 4.4mph /  7.1km/h 7mph /  11.3km/h 64% 0in /  0.0mm
20:29 54 °F /  12.2 °C 42.4 °F /  5.8 °C 30.1in /  1018.5hPa SSO 3.6mph /  5.8km/h 5.9mph /  9.5km/h 64.9% 0in /  0.0mm
20:34 54 °F /  12.2 °C 43 °F /  6.1 °C 30.1in /  1018.5hPa SSO 3.6mph /  5.8km/h 7.4mph /  11.9km/h 66.2% 0in /  0.0mm
20:39 53.8 °F /  12.1 °C 43.2 °F /  6.2 °C 30.1in /  1018.6hPa SSO 3.6mph /  5.8km/h 7mph /  11.3km/h 67% 0in /  0.0mm
20:44 53.6 °F /  12 °C 43.3 °F /  6.3 °C 30.1in /  1018.6hPa SSO 4mph /  6.4km/h 6.9mph /  11.1km/h 67.9% 0in /  0.0mm
20:49 53.4 °F /  11.9 °C 43.2 °F /  6.2 °C 30.1in /  1018.6hPa SSO 4.3mph /  6.9km/h 7.4mph /  11.9km/h 68% 0in /  0.0mm
20:54 53.2 °F /  11.8 °C 43.3 °F /  6.3 °C 30.1in /  1018.7hPa SSO 4.5mph /  7.3km/h 7mph /  11.3km/h 69% 0in /  0.0mm
20:59 53.2 °F /  11.8 °C 43.3 °F /  6.3 °C 30.1in /  1018.7hPa SSO 4.7mph /  7.6km/h 7.6mph /  12.2km/h 69% 0in /  0.0mm
21:04 53.1 °F /  11.7 °C 43.5 °F /  6.4 °C 30.1in /  1018.7hPa Sur 4.7mph /  7.6km/h 8mph /  12.9km/h 69.8% 0in /  0.0mm
21:09 53.1 °F /  11.7 °C 43.5 °F /  6.4 °C 30.1in /  1018.7hPa SSO 4.7mph /  7.6km/h 7mph /  11.3km/h 70% 0in /  0.0mm
21:14 53.1 °F /  11.7 °C 43.7 °F /  6.5 °C 30.1in /  1018.7hPa SSO 4.5mph /  7.2km/h 8.1mph /  13km/h 70.9% 0in /  0.0mm
21:19 52.9 °F /  11.6 °C 43.9 °F /  6.6 °C 30.1in /  1018.7hPa SO 4.3mph /  6.9km/h 8.5mph /  13.7km/h 71.4% 0in /  0.0mm
21:24 52.9 °F /  11.6 °C 44.1 °F /  6.7 °C 30.1in /  1018.7hPa SO 4.5mph /  7.3km/h 9mph /  14.5km/h 72% 0in /  0.0mm
21:29 52.7 °F /  11.5 °C 44.1 °F /  6.7 °C 30.1in /  1018.5hPa SO 4.7mph /  7.6km/h 7mph /  11.3km/h 72.5% 0in /  0.0mm
21:34 52.5 °F /  11.4 °C 44.1 °F /  6.7 °C 30.1in /  1018.5hPa SO 3.9mph /  6.3km/h 6mph /  9.7km/h 73% 0in /  0.0mm
21:39 52.5 °F /  11.4 °C 44.1 °F /  6.7 °C 30.1in /  1018.7hPa OSO 3.1mph /  5km/h 5mph /  8km/h 73% 0in /  0.0mm
21:44 52.5 °F /  11.4 °C 44.4 °F /  6.9 °C 30.1in /  1018.7hPa SO 2.7mph /  4.4km/h 5mph /  8km/h 73.7% 0in /  0.0mm
21:49 52.3 °F /  11.3 °C 44.4 °F /  6.9 °C 30.1in /  1018.7hPa OSO 2.4mph /  3.9km/h 7.6mph /  12.2km/h 74% 0in /  0.0mm
21:54 52.5 °F /  11.4 °C 44.8 °F /  7.1 °C 30.1in /  1018.8hPa SO 3.2mph /  5.1km/h 9.7mph /  15.6km/h 74.9% 0in /  0.0mm
21:59 52.5 °F /  11.4 °C 44.8 °F /  7.1 °C 30.1in /  1018.8hPa SO 4mph /  6.5km/h 10mph /  16.1km/h 75% 0in /  0.0mm
22:04 52.3 °F /  11.3 °C 44.6 °F /  7 °C 30.1in /  1018.8hPa SSO 4mph /  6.5km/h 7mph /  11.3km/h 75% 0in /  0.0mm
22:09 52.3 °F /  11.3 °C 44.4 °F /  6.9 °C 30.1in /  1018.9hPa SSO 4mph /  6.5km/h 6mph /  9.7km/h 74.1% 0in /  0.0mm
22:14 52.2 °F /  11.2 °C 44.2 °F /  6.8 °C 30.1in /  1018.9hPa SSO 3.5mph /  5.7km/h 6.4mph /  10.3km/h 74.3% 0in /  0.0mm
22:19 52.2 °F /  11.2 °C 44.4 °F /  6.9 °C 30.1in /  1018.9hPa SSE 3.1mph /  5km/h 7mph /  11.3km/h 75% 0in /  0.0mm
22:24 51.8 °F /  11 °C 44.2 °F /  6.8 °C 30.1in /  1019.0hPa Sur 3.7mph /  6km/h 7.4mph /  11.9km/h 75.3% 0in /  0.0mm
22:29 51.4 °F /  10.8 °C 44.1 °F /  6.7 °C 30.1in /  1019.0hPa SSO 4.3mph /  6.9km/h 8.1mph /  13km/h 76% 0in /  0.0mm
22:34 51.3 °F /  10.7 °C 44.2 °F /  6.8 °C 30.1in /  1019.0hPa Sur 4.3mph /  6.9km/h 8mph /  12.9km/h 76.8% 0in /  0.0mm
22:39 51.3 °F /  10.7 °C 44.2 °F /  6.8 °C 30.1in /  1019.0hPa Sur 4.3mph /  6.9km/h 7.4mph /  11.9km/h 77% 0in /  0.0mm
22:44 51.1 °F /  10.6 °C 44.2 °F /  6.8 °C 30.1in /  1019.0hPa Sur 4.3mph /  6.9km/h 7mph /  11.3km/h 77.1% 0in /  0.0mm
22:49 51.1 °F /  10.6 °C 44.2 °F /  6.8 °C 30.1in /  1019.0hPa SSE 4.3mph /  6.9km/h 6mph /  9.7km/h 77.6% 0in /  0.0mm
22:54 50.7 °F /  10.4 °C 44.1 °F /  6.7 °C 30.1in /  1019.0hPa SSE 4mph /  6.4km/h 5.9mph /  9.5km/h 77.9% 0in /  0.0mm
22:59 50.4 °F /  10.2 °C 44.1 °F /  6.7 °C 30.1in /  1019.0hPa SSO 3.6mph /  5.8km/h 7.4mph /  11.9km/h 78.6% 0in /  0.0mm
23:04 50.4 °F /  10.2 °C 44.1 °F /  6.7 °C 30.1in /  1019.0hPa SSO 3.8mph /  6.1km/h 7.4mph /  11.9km/h 79% 0in /  0.0mm
23:09 50.5 °F /  10.3 °C 44.2 °F /  6.8 °C 30.1in /  1019.0hPa SSO 4mph /  6.5km/h 7mph /  11.3km/h 79% 0in /  0.0mm
23:14 50.5 °F /  10.3 °C 44.2 °F /  6.8 °C 30.1in /  1018.9hPa SSO 4.2mph /  6.7km/h 7mph /  11.3km/h 79% 0in /  0.0mm
23:19 50.5 °F /  10.3 °C 44.2 °F /  6.8 °C 30.1in /  1018.9hPa SSO 4.3mph /  6.9km/h 6mph /  9.7km/h 79% 0in /  0.0mm
23:24 50.4 °F /  10.2 °C 43.9 °F /  6.6 °C 30.1in /  1018.9hPa SSO 4mph /  6.4km/h 5mph /  8km/h 78% 0in /  0.0mm
23:29 50.4 °F /  10.2 °C 43.9 °F /  6.6 °C 30.1in /  1018.7hPa SO 3.6mph /  5.8km/h 5mph /  8km/h 78% 0in /  0.0mm
23:34 50.4 °F /  10.2 °C 43.9 °F /  6.6 °C 30.1in /  1018.7hPa SO 3.2mph /  5.2km/h 5mph /  8km/h 78% 0in /  0.0mm
23:39 50.4 °F /  10.2 °C 43.7 °F /  6.5 °C 30.1in /  1018.7hPa SSO 2.9mph /  4.7km/h 5mph /  8km/h 78% 0in /  0.0mm
23:44 50.2 °F /  10.1 °C 43.5 °F /  6.4 °C 30.1in /  1018.6hPa SSO 2.9mph /  4.7km/h 5mph /  8km/h 78% 0in /  0.0mm
23:49 50 °F /  10 °C 43.3 °F /  6.3 °C 30.1in /  1018.6hPa Sur 2.9mph /  4.7km/h 5.2mph /  8.4km/h 78% 0in /  0.0mm
23:54 49.8 °F /  9.9 °C 43.2 °F /  6.2 °C 30.1in /  1018.6hPa Sur 3mph /  4.8km/h 5.9mph /  9.5km/h 78% 0in /  0.0mm
23:59 49.6 °F /  9.8 °C 43.2 °F /  6.2 °C 30.1in /  1018.5hPa SSO 3.1mph /  5km/h 6.9mph /  11.1km/h 78% 0in /  0.0mm
Murcia-Puente Tocinos, España
Compliments of Weather Underground - 2.75 mb

La estación de MeteoMurcia.com, publica sus datos en los siguientes proyectos:

Weather Underground PWS IMURCIAP2 Meteoclimatic www.awekas.at

W3Counter
Web Analytics